Time;durP1;ratioP1;P1;durP2;ratioP2;P2;SDS_P1;SDS_P2;PMS_P1;PMS_P2;Temp;Humidity;BMP_temperature;BMP_pressure;BME280_temperature;BME280_humidity;BME280_pressure;Samples;Min_cycle;Max_cycle;Signal;HPM_P1;HPM_P2
2022/08/28 00:00:11;;;;;;;36.83;31.45;;;;;;;19.47;79.45;99854.35;2075354;85;29842;-60
2022/08/28 00:03:14;;;;;;;41.77;31.82;;;;;;;19.45;79.47;99862.66;2051291;85;27724;-61
2022/08/28 00:06:17;;;;;;;20.50;13.80;;;;;;;19.43;79.59;99861.94;2030692;87;33858;-60
2022/08/28 00:09:18;;;;;;;40.30;31.40;;;;;;;19.42;79.75;99858.87;2030761;87;29326;-65
2022/08/28 00:12:20;;;;;;;40.78;31.50;;;;;;;19.40;79.79;99858.15;2030940;87;27796;-63
2022/08/28 00:15:30;;;;;;;37.10;31.52;;;;;;;19.38;79.93;99864.22;2030446;87;28708;-63
2022/08/28 00:18:31;;;;;;;44.15;33.60;;;;;;;19.36;80.01;99862.18;2030703;87;31050;-62
2022/08/28 00:21:33;;;;;;;40.15;34.20;;;;;;;19.33;80.09;99856.52;2030201;87;34134;-60
2022/08/28 00:24:35;;;;;;;42.08;33.18;;;;;;;19.32;80.38;99852.59;2030398;87;29742;-61
2022/08/28 00:27:53;;;;;;;43.55;34.10;;;;;;;19.31;80.47;99851.72;2030353;87;27632;-66
2022/08/28 00:30:57;;;;;;;44.85;35.60;;;;;;;19.31;80.51;99859.03;2030894;87;28906;-65
2022/08/28 00:34:02;;;;;;;44.63;35.13;;;;;;;19.27;80.57;99862.03;2062023;86;31028;-60
2022/08/28 00:37:03;;;;;;;49.33;36.55;;;;;;;19.27;80.74;99863.38;2069490;86;33774;-65
2022/08/28 00:40:07;;;;;;;40.45;34.43;;;;;;;19.26;80.96;99865.74;2068019;85;29743;-64
2022/08/28 00:43:12;;;;;;;45.63;35.68;;;;;;;19.24;81.02;99865.02;2069850;86;28213;-60
2022/08/28 00:46:18;;;;;;;45.50;34.18;;;;;;;19.23;81.03;99859.75;2044813;86;28700;-61
2022/08/28 00:49:34;;;;;;;42.75;35.95;;;;;;;19.23;81.24;99861.95;2070304;85;31999;-61
2022/08/28 00:52:36;;;;;;;43.73;35.58;;;;;;;19.23;81.41;99852.95;2069813;85;33794;-62
2022/08/28 00:55:37;;;;;;;42.78;34.43;;;;;;;19.22;81.52;99855.31;2069887;86;29346;-67
2022/08/28 00:58:42;;;;;;;42.55;36.05;;;;;;;19.20;81.51;99852.72;2070028;86;28342;-67
2022/08/28 01:01:47;;;;;;;45.03;35.58;;;;;;;19.19;81.57;99858.31;2065238;85;28875;-66
2022/08/28 01:04:49;;;;;;;41.15;35.83;;;;;;;19.19;81.65;99856.95;2054642;86;31064;-64
2022/08/28 01:07:51;;;;;;;43.83;35.43;;;;;;;19.17;81.76;99854.88;2069463;85;33814;-66
2022/08/28 01:10:54;;;;;;;41.08;32.98;;;;;;;19.15;81.81;99856.39;2069610;86;30347;-66
2022/08/28 01:13:58;;;;;;;41.70;34.10;;;;;;;19.13;81.81;99862.45;2069785;85;27704;-67
2022/08/28 01:16:59;;;;;;;42.05;35.98;;;;;;;19.10;81.92;99860.02;2069599;85;28714;-66
2022/08/28 01:20:08;;;;;;;44.03;33.80;;;;;;;19.10;81.94;99862.73;2068814;86;31374;-65
2022/08/28 01:23:20;;;;;;;42.05;35.78;;;;;;;19.09;82.04;99862.38;2038890;86;33026;-66
2022/08/28 01:26:23;;;;;;;48.58;34.70;;;;;;;19.05;82.12;99865.89;2061585;86;30137;-65
2022/08/28 01:29:27;;;;;;;45.92;35.70;;;;;;;19.04;82.08;99866.02;2061211;86;27853;-66
2022/08/28 01:32:36;;;;;;;38.90;32.80;;;;;;;19.02;82.38;99862.61;2061920;86;29268;-65
2022/08/28 01:35:43;;;;;;;40.45;31.45;;;;;;;19.01;82.45;99864.45;2062992;85;32182;-67
2022/08/28 01:38:49;;;;;;;41.20;32.75;;;;;;;19.00;82.34;99860.53;2065506;84;33808;-67
2022/08/28 01:41:53;;;;;;;44.20;33.10;;;;;;;18.99;82.42;99856.94;2052458;85;29548;-65
2022/08/28 01:44:55;;;;;;;41.95;33.88;;;;;;;18.98;82.65;99852.51;2079305;85;27687;-67
2022/08/28 01:47:56;;;;;;;41.75;31.52;;;;;;;18.96;82.77;99853.14;2079605;85;28718;-66
2022/08/28 01:50:58;;;;;;;39.85;31.97;;;;;;;18.96;82.77;99855.86;2077570;84;31471;-66
2022/08/28 01:53:59;;;;;;;41.80;32.80;;;;;;;18.95;82.97;99844.64;2070785;86;33088;-62
2022/08/28 01:57:02;;;;;;;39.45;31.80;;;;;;;18.94;83.12;99851.95;2071644;85;30695;-65
2022/08/28 02:00:05;;;;;;;39.63;30.82;;;;;;;18.94;83.15;99847.00;2071506;85;27598;-62
2022/08/28 02:03:07;;;;;;;39.58;30.37;;;;;;;18.94;83.33;99848.36;2033236;87;28647;-61
2022/08/28 02:06:09;;;;;;;38.55;32.03;;;;;;;18.94;83.33;99853.78;2002057;88;31778;-66
2022/08/28 02:09:12;;;;;;;34.27;30.50;;;;;;;18.93;83.44;99843.41;2002204;88;33970;-63
2022/08/28 02:12:13;;;;;;;33.13;28.42;;;;;;;18.92;83.35;99844.41;2013777;87;29734;-62
2022/08/28 02:15:14;;;;;;;34.30;29.87;;;;;;;18.92;83.50;99847.63;2035661;87;27703;-67
2022/08/28 02:18:16;;;;;;;36.38;29.85;;;;;;;18.91;83.51;99849.98;2035620;87;29131;-66
2022/08/28 02:21:18;;;;;;;37.67;29.67;;;;;;;18.90;83.61;99846.91;2033985;87;32047;-66
2022/08/28 02:24:19;;;;;;;32.53;28.45;;;;;;;18.89;83.60;99840.61;2033073;87;33068;-60
2022/08/28 02:27:20;;;;;;;36.10;30.43;;;;;;;18.89;83.59;99840.61;2033581;87;30474;-65
2022/08/28 02:30:22;;;;;;;35.33;29.05;;;;;;;18.89;83.69;99847.40;2033750;87;27684;-66
2022/08/28 02:33:24;;;;;;;33.98;28.17;;;;;;;18.90;83.70;99853.70;2033453;87;28727;-67
2022/08/28 02:36:25;;;;;;;37.75;30.75;;;;;;;18.89;83.76;99850.11;2032879;87;31646;-66
2022/08/28 02:39:27;;;;;;;37.00;31.12;;;;;;;18.91;83.92;99851.34;2038221;87;34288;-61
2022/08/28 02:42:29;;;;;;;36.95;31.90;;;;;;;18.92;84.02;99850.34;2045400;87;29366;-67
2022/08/28 02:45:30;;;;;;;37.45;30.95;;;;;;;18.94;84.16;99852.43;2045408;87;27607;-65
2022/08/28 02:48:35;;;;;;;41.08;31.42;;;;;;;18.98;84.39;99853.38;2044994;87;28702;-66
2022/08/28 02:51:38;;;;;;;42.65;34.63;;;;;;;19.03;84.57;99857.54;2045149;87;56193;-62
2022/08/28 02:54:39;;;;;;;38.83;32.33;;;;;;;19.08;84.58;99857.95;2039859;87;33403;-65
2022/08/28 02:57:41;;;;;;;39.35;32.90;;;;;;;19.12;84.71;99853.95;2038135;87;30707;-60
2022/08/28 03:00:43;;;;;;;42.78;34.67;;;;;;;19.17;84.72;99849.45;2039371;86;27576;-60
2022/08/28 03:03:44;;;;;;;43.98;33.58;;;;;;;19.21;84.81;99846.30;2039728;87;30029;-64
2022/08/28 03:06:46;;;;;;;41.90;32.53;;;;;;;19.25;84.82;99846.38;2039755;85;31407;-64
2022/08/28 03:09:49;;;;;;;36.03;31.30;;;;;;;19.30;84.96;99851.88;2040113;87;34193;-62
2022/08/28 03:12:50;;;;;;;38.28;31.60;;;;;;;19.35;85.00;99845.52;2041167;85;30114;-62
2022/08/28 03:15:51;;;;;;;40.67;32.38;;;;;;;19.39;85.05;99851.88;2041970;87;27685;-66
2022/08/28 03:18:53;;;;;;;39.85;31.70;;;;;;;19.43;85.09;99849.23;2042007;87;29096;-64
2022/08/28 03:21:54;;;;;;;41.85;31.68;;;;;;;19.48;85.07;99855.58;2041180;87;31990;-61
2022/08/28 03:24:55;;;;;;;38.25;31.10;;;;;;;19.52;85.10;99857.50;2039989;86;33122;-61
2022/08/28 03:27:56;;;;;;;41.60;32.08;;;;;;;19.57;85.14;99855.22;2039787;85;30685;-60
2022/08/28 03:30:58;;;;;;;37.78;30.25;;;;;;;19.59;85.17;99859.48;2040009;86;27699;-60
2022/08/28 03:34:00;;;;;;;40.75;30.68;;;;;;;19.64;85.15;99860.92;2040225;87;29075;-63
2022/08/28 03:37:02;;;;;;;34.92;28.27;;;;;;;19.67;85.17;99858.76;2038441;85;31124;-66
2022/08/28 03:40:05;;;;;;;37.48;30.90;;;;;;;19.71;85.19;99855.23;2033452;85;33725;-62
2022/08/28 03:43:10;;;;;;;39.50;32.63;;;;;;;19.74;85.18;99857.18;2028301;87;29379;-62
2022/08/28 03:46:15;;;;;;;38.63;31.05;;;;;;;19.78;85.13;99858.22;2029433;87;27726;-65
2022/08/28 03:49:17;;;;;;;37.13;30.48;;;;;;;19.80;85.12;99858.45;2028788;87;28697;-62
2022/08/28 03:52:18;;;;;;;38.00;29.85;;;;;;;19.83;85.08;99860.00;2030555;87;31417;-59
2022/08/28 03:55:21;;;;;;;42.98;30.32;;;;;;;19.86;85.13;99863.28;2031575;87;32866;-62
2022/08/28 03:58:24;;;;;;;36.03;28.98;;;;;;;19.89;85.09;99852.14;2067947;86;30502;-60
2022/08/28 04:01:26;;;;;;;42.40;30.27;;;;;;;19.90;85.04;99847.58;2067604;86;28255;-60
2022/08/28 04:04:28;;;;;;;41.20;29.23;;;;;;;19.93;85.03;99860.02;2067847;86;28708;-66
2022/08/28 04:07:29;;;;;;;32.30;27.67;;;;;;;19.95;85.09;99858.00;2067650;84;30247;-63
2022/08/28 04:10:31;;;;;;;35.25;28.80;;;;;;;19.96;84.99;99871.95;2067573;86;33313;-65
2022/08/28 04:13:33;;;;;;;36.33;28.62;;;;;;;19.97;85.05;99875.88;2067612;86;30288;-62
2022/08/28 04:16:35;;;;;;;34.43;29.32;;;;;;;19.99;85.06;99875.23;2068006;86;27716;-65
2022/08/28 04:19:36;;;;;;;37.17;28.10;;;;;;;20.03;85.06;99882.58;2067944;86;28182;-62
2022/08/28 04:22:39;;;;;;;33.42;27.45;;;;;;;20.05;85.15;99877.85;2066503;84;32279;-61
2022/08/28 04:25:41;;;;;;;34.80;27.00;;;;;;;20.06;85.06;99876.84;2065642;86;34320;-61
2022/08/28 04:28:44;;;;;;;34.25;27.40;;;;;;;20.09;85.06;99876.56;2065346;86;29762;-66
2022/08/28 04:31:45;;;;;;;36.40;27.93;;;;;;;20.11;85.03;99875.91;2066308;86;27649;-59
2022/08/28 04:34:46;;;;;;;35.52;28.65;;;;;;;20.13;85.02;99883.42;2066337;86;29858;-60
2022/08/28 04:37:48;;;;;;;30.12;26.33;;;;;;;20.16;85.01;99878.17;2065883;86;31087;-60
2022/08/28 04:40:50;;;;;;;29.67;25.37;;;;;;;20.18;84.97;99883.84;2065284;84;33711;-66
2022/08/28 04:43:52;;;;;;;31.37;26.02;;;;;;;20.19;84.92;99884.16;2064692;86;29810;-66
2022/08/28 04:46:54;;;;;;;31.93;26.52;;;;;;;20.23;84.91;99889.31;2065020;86;27788;-62
2022/08/28 04:49:55;;;;;;;30.70;24.98;;;;;;;20.25;84.87;99890.90;2065307;85;28685;-62
2022/08/28 04:52:57;;;;;;;31.42;24.77;;;;;;;20.27;84.88;99889.38;2093507;85;30867;-62
2022/08/28 04:56:01;;;;;;;29.35;25.32;;;;;;;20.31;84.81;99894.36;2092919;84;34286;-65
2022/08/28 04:59:03;;;;;;;28.70;24.50;;;;;;;20.34;84.77;99898.67;2093743;85;30515;-63
2022/08/28 05:02:04;;;;;;;31.10;24.15;;;;;;;20.38;84.80;99897.86;2093750;84;28262;-65
2022/08/28 05:05:07;;;;;;;28.55;24.02;;;;;;;20.41;84.73;99898.92;2093828;84;29114;-59
2022/08/28 05:08:11;;;;;;;29.67;24.72;;;;;;;20.44;84.72;99893.16;2084283;85;31855;-59
2022/08/28 05:11:18;;;;;;;26.75;23.10;;;;;;;20.48;84.64;99890.49;2067408;84;33041;-60
2022/08/28 05:14:20;;;;;;;28.50;23.20;;;;;;;20.51;84.61;99891.56;2079688;84;29415;-59
2022/08/28 05:17:21;;;;;;;28.40;22.60;;;;;;;20.55;84.58;99890.74;2105222;84;27614;-59
2022/08/28 05:20:23;;;;;;;28.90;22.70;;;;;;;20.61;84.62;99884.70;2095426;84;29106;-66
2022/08/28 05:23:25;;;;;;;34.40;24.98;;;;;;;20.65;84.50;99892.92;2079231;85;31130;-65
2022/08/28 05:26:27;;;;;;;31.33;23.50;;;;;;;20.69;84.50;99893.47;2092573;85;32985;-59
2022/08/28 05:29:29;;;;;;;36.88;23.52;;;;;;;20.73;84.52;99904.41;2093394;84;29394;-61
2022/08/28 05:32:31;;;;;;;35.75;23.77;;;;;;;20.78;84.47;99902.10;2093373;85;27676;-65
2022/08/28 05:35:38;;;;;;;28.90;23.85;;;;;;;20.83;84.40;99898.43;2093926;85;28771;-59
2022/08/28 05:38:40;;;;;;;28.95;24.35;;;;;;;20.87;84.38;99898.48;2093864;84;31030;-61
2022/08/28 05:41:43;;;;;;;29.35;22.25;;;;;;;20.91;84.32;99906.70;2090673;84;32971;-59
2022/08/28 05:44:45;;;;;;;33.67;24.15;;;;;;;20.96;84.21;99903.52;2090698;85;30519;-60
2022/08/28 05:47:47;;;;;;;26.73;21.93;;;;;;;21.01;84.18;99907.13;2090385;85;27724;-62
2022/08/28 05:50:48;;;;;;;26.97;21.75;;;;;;;21.06;84.11;99918.43;2076975;85;28740;-59
2022/08/28 05:53:49;;;;;;;33.80;23.02;;;;;;;21.07;83.85;99914.17;2063556;86;31206;-61
2022/08/28 05:56:51;;;;;;;30.80;23.07;;;;;;;21.14;83.95;99911.69;2063270;86;34083;-60
2022/08/28 05:59:52;;;;;;;26.25;22.25;;;;;;;21.20;83.89;99906.12;2064121;85;29211;-59
2022/08/28 06:02:54;;;;;;;30.25;23.90;;;;;;;21.29;83.77;99912.02;2062238;85;27758;-60
2022/08/28 06:05:56;;;;;;;31.55;23.07;;;;;;;21.36;83.60;99908.16;2061843;86;29409;-63
2022/08/28 06:09:01;;;;;;;30.50;23.85;;;;;;;21.44;83.58;99910.94;2062109;86;31241;-60
2022/08/28 06:12:03;;;;;;;35.38;22.67;;;;;;;21.48;83.32;99915.08;2062364;86;33021;-65
2022/08/28 06:15:06;;;;;;;32.05;22.65;;;;;;;21.57;83.23;99916.53;2061842;86;29378;-59
2022/08/28 06:18:08;;;;;;;29.45;22.40;;;;;;;21.64;83.21;99921.71;2062030;85;27715;-64
2022/08/28 06:21:10;;;;;;;28.02;21.85;;;;;;;21.72;83.21;99920.43;2078093;85;29475;-64
2022/08/28 06:24:12;;;;;;;33.53;24.23;;;;;;;21.80;83.13;99925.09;2089965;85;31067;-60
2022/08/28 06:27:13;;;;;;;25.77;21.97;;;;;;;21.83;82.76;99920.69;2090329;85;34168;-64
2022/08/28 06:30:15;;;;;;;33.63;23.32;;;;;;;21.92;82.73;99926.53;2090472;85;29218;-62
2022/08/28 06:33:17;;;;;;;28.25;23.55;;;;;;;21.99;82.52;99930.35;2089785;85;27742;-65
2022/08/28 06:36:18;;;;;;;27.30;23.50;;;;;;;22.05;82.17;99930.22;2090799;85;29096;-59
2022/08/28 06:39:19;;;;;;;29.12;23.45;;;;;;;22.13;82.22;99920.70;2090582;85;30795;-65
2022/08/28 06:42:20;;;;;;;30.23;24.47;;;;;;;22.25;82.15;99928.64;2089071;83;34190;-60
2022/08/28 06:45:22;;;;;;;30.48;23.52;;;;;;;22.36;81.89;99930.20;2090214;85;29754;-59
2022/08/28 06:48:27;;;;;;;29.25;23.90;;;;;;;22.45;81.80;99926.03;2090376;85;28212;-60
2022/08/28 06:51:28;;;;;;;31.68;24.60;;;;;;;22.61;81.61;99924.39;2071489;85;30075;-65
2022/08/28 06:54:30;;;;;;;30.60;24.87;;;;;;;22.73;81.27;99928.56;2062282;85;31400;-64
2022/08/28 06:57:31;;;;;;;28.67;24.23;;;;;;;22.90;80.94;99928.62;2064733;84;34082;-65
2022/08/28 07:00:34;;;;;;;29.40;23.85;;;;;;;23.05;80.77;99929.68;2062804;86;29404;-66
2022/08/28 07:03:36;;;;;;;29.70;23.07;;;;;;;23.24;80.41;99927.71;2064145;86;27714;-65
2022/08/28 07:06:44;;;;;;;27.20;22.58;;;;;;;23.39;80.14;99922.94;2064182;86;28282;-66
2022/08/28 07:09:46;;;;;;;27.48;21.62;;;;;;;23.52;79.66;99922.76;2064289;86;30752;-60
2022/08/28 07:12:50;;;;;;;25.40;22.15;;;;;;;23.61;79.30;99926.88;2064081;86;32738;-65
2022/08/28 07:15:51;;;;;;;23.32;20.37;;;;;;;23.65;78.77;99926.89;2064285;86;29199;-64
2022/08/28 07:18:53;;;;;;;24.40;19.52;;;;;;;23.66;78.48;99931.33;2064171;86;27698;-64
2022/08/28 07:21:54;;;;;;;24.05;19.15;;;;;;;23.64;77.84;99927.91;2062244;85;28587;-67
2022/08/28 07:24:56;;;;;;;22.20;19.52;;;;;;;23.59;77.39;99932.50;2061954;86;31366;-66
2022/08/28 07:27:59;;;;;;;23.10;18.57;;;;;;;23.59;77.73;99927.55;2062039;86;33682;-67
2022/08/28 07:31:06;;;;;;;24.15;18.70;;;;;;;23.57;77.34;99935.07;2062263;86;29228;-63
2022/08/28 07:34:09;;;;;;;22.90;18.42;;;;;;;23.60;77.53;99935.58;2062337;86;27652;-67
2022/08/28 07:37:10;;;;;;;22.15;18.45;;;;;;;23.67;77.14;99937.11;2033447;87;28094;-63
2022/08/28 07:40:12;;;;;;;22.48;18.00;;;;;;;23.63;76.80;99942.61;2033934;87;31016;-65
2022/08/28 07:46:33;;;;;;;19.90;17.77;;;;;;;23.69;76.70;99941.06;2039906;85;30286;-64
2022/08/28 07:49:35;;;;;;;21.65;17.85;;;;;;;23.70;76.31;99942.25;2040370;87;27709;-61
2022/08/28 07:52:36;;;;;;;21.45;17.30;;;;;;;23.72;75.94;99947.04;2042042;86;29140;-62
2022/08/28 07:55:37;;;;;;;17.90;15.78;;;;;;;23.70;75.62;99953.19;2041958;87;31865;-65
2022/08/28 07:58:42;;;;;;;21.77;16.52;;;;;;;23.73;75.78;99958.85;2041792;85;32949;-66
2022/08/28 08:01:45;;;;;;;;;;;;;;;23.78;75.60;99955.06;2044058;85;30527;-64
2022/08/28 08:04:46;;;;;;;17.73;14.78;;;;;;;23.87;75.50;99960.03;2041784;87;27779;-64
2022/08/28 08:07:47;;;;;;;18.10;15.13;;;;;;;23.95;75.50;99962.77;2041840;85;28714;-65
2022/08/28 08:11:05;;;;;;;18.30;14.38;;;;;;;23.98;75.17;99962.47;2041802;86;32197;-65
2022/08/28 08:14:07;;;;;;;17.75;13.80;;;;;;;24.04;74.96;99959.02;2041874;87;33015;-65
2022/08/28 08:17:09;;;;;;;15.05;13.55;;;;;;;24.15;74.95;99961.08;2041844;85;29829;-65
2022/08/28 08:20:11;;;;;;;14.55;13.03;;;;;;;24.27;74.92;99958.31;2038382;87;28143;-66
2022/08/28 08:23:12;;;;;;;15.23;12.73;;;;;;;24.36;74.63;99958.62;2037973;87;29905;-65
2022/08/28 08:26:17;;;;;;;13.85;11.38;;;;;;;24.49;74.53;99962.19;2039521;87;32259;-63
2022/08/28 08:29:19;;;;;;;13.43;10.58;;;;;;;24.62;74.12;99965.75;2040134;87;33618;-66
2022/08/28 08:32:20;;;;;;;14.50;10.20;;;;;;;24.85;74.16;99963.62;2040211;87;29260;-66
2022/08/28 08:35:22;;;;;;;11.90;10.65;;;;;;;25.00;73.36;99967.84;2040301;87;27711;-67
2022/08/28 08:38:24;;;;;;;11.53;10.43;;;;;;;25.07;72.99;99969.35;2038706;85;28580;-63
2022/08/28 08:41:36;;;;;;;13.83;10.68;;;;;;;25.21;72.99;99971.33;2034461;87;31435;-67
2022/08/28 08:44:42;;;;;;;11.30;10.15;;;;;;;25.36;72.35;99974.16;2028808;87;33526;-66
2022/08/28 08:47:50;;;;;;;15.63;10.90;;;;;;;25.46;72.21;99973.42;2029139;87;29337;-65
2022/08/28 08:50:53;;;;;;;10.63;9.53;;;;;;;25.53;71.60;99979.03;2029095;87;27723;-67
2022/08/28 08:54:05;;;;;;;14.25;10.10;;;;;;;25.71;71.65;99977.87;2060356;86;29739;-68
2022/08/28 08:57:13;;;;;;;10.03;9.08;;;;;;;25.86;71.27;99974.66;2060044;86;32214;-65
2022/08/28 09:00:15;;;;;;;10.72;8.73;;;;;;;26.01;71.03;99980.20;2060455;86;33050;-65
2022/08/28 09:03:22;;;;;;;8.95;8.00;;;;;;;26.20;70.33;99980.22;2060679;86;30476;-62
2022/08/28 09:07:10;;;;;;;9.85;8.00;;;;;;;26.41;70.40;99984.64;2036120;86;27737;-62
2022/08/28 09:10:13;;;;;;;8.68;7.83;;;;;;;26.53;69.44;99981.25;2000812;89;29913;-63
2022/08/28 09:13:35;;;;;;;8.38;7.60;;;;;;;26.54;69.01;99986.23;2034384;87;31887;-67
2022/08/28 09:16:40;;;;;;;8.18;7.33;;;;;;;26.55;68.52;99983.83;2021125;86;32975;-64
2022/08/28 09:19:41;;;;;;;8.40;6.87;;;;;;;26.58;68.38;99988.92;2049201;86;30181;-62
2022/08/28 09:22:45;;;;;;;7.22;6.62;;;;;;;26.72;67.82;99985.84;2047652;86;27718;-64
2022/08/28 09:25:57;;;;;;;7.22;6.08;;;;;;;26.85;67.46;99986.59;2070264;85;28667;-63
2022/08/28 09:29:15;;;;;;;7.45;6.70;;;;;;;26.88;66.98;99986.72;2073681;85;31409;-68
2022/08/28 09:32:33;;;;;;;7.28;5.50;;;;;;;26.94;66.99;99988.18;2088121;85;33812;-62
2022/08/28 09:35:37;;;;;;;7.58;5.97;;;;;;;27.07;66.36;99984.75;2037892;86;29313;-66
2022/08/28 09:38:39;;;;;;;5.83;5.33;;;;;;;27.22;65.94;99983.33;2078116;84;27782;-65
2022/08/28 09:45:23;;;;;;;5.83;5.33;;;;;;;27.78;66.11;99970.00;2089614;84;30906;-67
2022/08/28 09:48:44;;;;;;;6.58;5.97;;;;;;;28.16;65.20;99978.82;2074808;85;34123;-68
2022/08/28 09:51:46;;;;;;;5.30;4.90;;;;;;;28.41;64.19;99976.13;2069603;85;30296;-67
2022/08/28 09:54:49;;;;;;;6.37;5.87;;;;;;;28.66;64.30;99972.37;2062535;86;28296;-70
2022/08/28 09:57:51;;;;;;;6.22;5.72;;;;;;;28.84;62.95;99968.25;2052087;86;29508;-64
2022/08/28 10:00:57;;;;;;;5.45;5.03;;;;;;;28.91;62.11;99972.73;2063753;86;31202;-68
2022/08/28 10:04:33;;;;;;;5.58;5.08;;;;;;;29.03;62.63;99970.25;2064284;86;33010;-65
2022/08/28 10:07:52;;;;;;;4.78;4.37;;;;;;;29.16;62.09;99968.05;2064220;86;29544;-67
2022/08/28 10:11:01;;;;;;;7.05;4.62;;;;;;;29.21;60.71;99968.80;2054731;86;27737;-64
2022/08/28 10:14:27;;;;;;;5.05;4.65;;;;;;;29.30;60.65;99973.09;1996627;88;29057;-63
2022/08/28 10:17:52;;;;;;;4.17;3.80;;;;;;;29.36;60.02;99979.71;2056482;86;31541;-68
2022/08/28 10:21:34;;;;;;;4.12;3.83;;;;;;;29.38;58.72;99978.44;2051587;85;33076;-67
2022/08/28 10:24:53;;;;;;;5.40;4.45;;;;;;;29.26;58.76;99978.18;2040797;87;30589;-64
2022/08/28 10:28:37;;;;;;;6.87;4.62;;;;;;;29.15;59.00;99981.52;2041300;87;27873;-64
2022/08/28 10:31:59;;;;;;;5.28;4.42;;;;;;;29.14;59.29;99981.73;2040822;87;29990;-65
2022/08/28 10:35:17;;;;;;;4.85;4.45;;;;;;;29.26;59.30;99981.45;2041060;87;31035;-66
2022/08/28 10:39:00;;;;;;;5.67;5.17;;;;;;;29.36;59.13;99980.58;2040041;87;34103;-66
2022/08/28 10:42:03;;;;;;;7.12;4.40;;;;;;;29.45;58.52;99982.62;2039047;85;30477;-64
2022/08/28 10:45:15;;;;;;;5.20;4.70;;;;;;;29.50;58.26;99982.82;2038700;87;27777;-66
2022/08/28 10:48:34;;;;;;;5.70;4.85;;;;;;;29.52;58.01;99982.63;2042120;85;28677;-65
2022/08/28 10:51:48;;;;;;;4.83;4.35;;;;;;;29.54;57.46;99983.24;2075668;85;31425;-66
2022/08/28 10:55:23;;;;;;;5.47;4.37;;;;;;;29.55;57.60;99981.67;2075555;85;34323;-65
2022/08/28 10:58:25;;;;;;;;;;;;;;;29.60;57.30;99981.58;2078127;85;29789;-63
2022/08/28 11:01:36;;;;;;;5.17;4.67;;;;;;;29.60;56.90;99982.42;2074000;85;27723;-60
2022/08/28 11:04:38;;;;;;;6.87;4.70;;;;;;;29.46;56.81;99982.08;2037734;85;29381;-60
2022/08/28 11:07:49;;;;;;;5.40;4.90;;;;;;;29.43;57.28;99982.48;2021506;88;31048;-61
2022/08/28 11:10:53;;;;;;;6.15;4.75;;;;;;;29.30;56.72;99979.98;2023965;88;32986;-61
2022/08/28 11:13:58;;;;;;;4.67;4.28;;;;;;;29.24;56.91;99979.42;2023799;87;29360;-63
2022/08/28 11:17:26;;;;;;;6.85;4.85;;;;;;;29.16;56.59;99976.87;2023953;86;27638;-63
2022/08/28 11:20:29;;;;;;;5.55;4.30;;;;;;;29.04;56.72;99981.58;2023803;88;29094;-61
2022/08/28 11:23:44;;;;;;;8.13;4.35;;;;;;;29.02;56.80;99980.09;2023772;88;30791;-64
2022/08/28 11:27:03;;;;;;;5.72;5.22;;;;;;;28.98;56.94;99981.04;2023813;87;32847;-60
2022/08/28 11:30:27;;;;;;;7.80;5.85;;;;;;;28.92;56.70;99985.47;2023941;87;29749;-59
2022/08/28 11:33:43;;;;;;;;;;;;;;;28.84;57.00;99982.88;2025950;87;27650;-60
2022/08/28 11:36:50;;;;;;;8.45;7.75;;;;;;;28.84;56.82;99988.39;2025335;87;28602;-61
2022/08/28 11:39:51;;;;;;;7.40;6.75;;;;;;;28.88;57.35;99987.44;2025733;87;31170;-60
2022/08/28 11:42:54;;;;;;;8.33;6.35;;;;;;;29.05;56.88;99996.23;2013002;87;33329;-60
2022/08/28 11:46:01;;;;;;;5.70;5.20;;;;;;;29.18;57.21;99988.00;2045446;85;29399;-61
2022/08/28 11:49:32;;;;;;;5.40;4.90;;;;;;;29.30;56.89;99991.02;2073069;85;28565;-60
2022/08/28 11:53:06;;;;;;;5.42;4.92;;;;;;;29.29;56.40;99998.14;2086139;84;29708;-61
2022/08/28 11:56:47;;;;;;;5.58;4.78;;;;;;;29.44;56.97;99996.09;2098582;84;32233;-60
2022/08/28 12:00:25;;;;;;;4.85;4.45;;;;;;;29.73;56.74;100001.44;2072935;84;33379;-60
2022/08/28 12:03:55;;;;;;;5.58;4.22;;;;;;;29.80;55.88;100002.31;2039345;87;30545;-61
2022/08/28 12:07:17;;;;;;;4.62;4.22;;;;;;;29.75;55.85;99995.18;2002619;88;27693;-60
2022/08/28 12:10:30;;;;;;;4.97;4.50;;;;;;;29.74;55.93;99996.23;2054998;85;28759;-61
2022/08/28 12:13:48;;;;;;;5.47;4.20;;;;;;;29.76;55.90;99996.38;2081789;85;31435;-60
2022/08/28 12:17:02;;;;;;;6.62;4.40;;;;;;;29.63;55.35;100002.71;2081881;85;33332;-61
2022/08/28 12:20:33;;;;;;;4.92;4.37;;;;;;;29.39;55.48;99998.08;2069411;85;29270;-60
2022/08/28 12:23:44;;;;;;;5.37;4.87;;;;;;;29.08;55.25;100005.48;2082104;85;28282;-64
2022/08/28 12:26:53;;;;;;;4.78;4.37;;;;;;;28.83;55.52;100009.28;2054982;85;29859;-59
2022/08/28 12:29:58;;;;;;;9.93;8.10;;;;;;;28.58;55.74;100006.97;2081739;85;31253;-61
2022/08/28 12:33:16;;;;;;;11.75;10.55;;;;;;;28.32;55.92;100014.84;2081920;85;32995;-59
2022/08/28 12:36:25;;;;;;;13.85;12.30;;;;;;;28.03;56.07;100017.24;2080205;85;30553;-61
2022/08/28 12:39:22;;;;;;;15.03;12.30;;;;;;;27.81;56.44;100023.25;2079259;85;27817;-60
2022/08/28 12:42:28;;;;;;;13.40;11.57;;;;;;;27.62;56.82;100026.14;2077679;84;29034;-60
2022/08/28 12:45:52;;;;;;;14.80;10.90;;;;;;;27.41;56.98;100024.52;2072127;85;31073;-60
2022/08/28 12:49:00;;;;;;;14.58;9.65;;;;;;;27.32;57.38;100027.03;2073339;85;34209;-60
2022/08/28 12:52:17;;;;;;;7.83;7.12;;;;;;;27.20;57.43;100031.33;2073514;85;30130;-61
2022/08/28 12:55:20;;;;;;;8.78;7.87;;;;;;;27.10;57.67;100025.62;2073472;85;27708;-60
2022/08/28 12:58:32;;;;;;;8.20;6.97;;;;;;;27.07;57.77;100022.38;2073643;85;28831;-60
2022/08/28 13:01:34;;;;;;;8.90;8.00;;;;;;;27.06;58.13;100025.67;2073231;85;31966;-61
2022/08/28 13:04:41;;;;;;;10.32;8.08;;;;;;;26.97;58.11;100027.67;2073770;85;32968;-62
2022/08/28 13:07:49;;;;;;;8.90;7.25;;;;;;;26.95;58.32;100027.00;2033482;87;29238;-61
2022/08/28 13:10:51;;;;;;;6.37;5.75;;;;;;;26.77;58.23;100034.74;2067425;85;28322;-60
2022/08/28 13:13:52;;;;;;;6.15;5.20;;;;;;;26.44;58.50;100038.70;2067205;85;29084;-60
2022/08/28 13:16:53;;;;;;;6.62;5.42;;;;;;;26.17;58.77;100045.65;2067188;85;30759;-61
2022/08/28 13:20:04;;;;;;;5.72;4.45;;;;;;;25.96;59.40;100052.64;2067268;86;32960;-60
2022/08/28 13:23:06;;;;;;;5.53;4.35;;;;;;;25.74;59.76;100055.19;2066560;86;28863;-60
2022/08/28 13:26:09;;;;;;;3.77;3.40;;;;;;;25.57;60.00;100061.81;2067466;86;27697;-59
2022/08/28 13:29:20;;;;;;;4.47;3.60;;;;;;;25.44;60.24;100059.67;2032570;87;29543;-63
2022/08/28 13:32:22;;;;;;;4.50;3.92;;;;;;;25.23;60.47;100061.64;2055658;86;32021;-61
2022/08/28 13:35:29;;;;;;;4.85;4.15;;;;;;;24.99;61.14;100062.90;2073581;85;33361;-60
2022/08/28 13:38:30;;;;;;;7.08;4.22;;;;;;;24.80;61.88;100063.33;2094467;84;29903;-60
2022/08/28 13:41:31;;;;;;;4.20;3.60;;;;;;;24.62;62.40;100063.48;2094286;85;27592;-61
2022/08/28 13:44:40;;;;;;;4.17;3.47;;;;;;;24.51;62.98;100057.84;2093913;84;29094;-64
2022/08/28 13:47:42;;;;;;;3.80;3.50;;;;;;;24.41;63.69;100061.64;2085783;85;31046;-67
2022/08/28 13:50:50;;;;;;;4.33;3.10;;;;;;;24.30;63.93;100070.22;2066595;86;33407;-62
2022/08/28 13:53:51;;;;;;;5.35;3.72;;;;;;;24.24;64.39;100069.52;2066394;86;29426;-61
2022/08/28 13:56:52;;;;;;;3.65;3.33;;;;;;;24.21;64.76;100075.33;2066872;86;27731;-65
2022/08/28 13:59:54;;;;;;;4.87;3.30;;;;;;;24.17;65.12;100071.22;2066461;86;28628;-61
2022/08/28 14:06:17;;;;;;;3.08;2.75;;;;;;;24.04;65.46;100075.33;2066271;86;33485;-61
2022/08/28 14:09:18;;;;;;;2.52;2.00;;;;;;;23.91;65.87;100077.68;2066527;86;29734;-62
2022/08/28 14:12:19;;;;;;;0.80;0.80;;;;;;;23.76;66.21;100081.08;2066354;86;27597;-61
2022/08/28 14:15:21;;;;;;;9.98;1.32;;;;;;;23.57;66.20;100084.11;2066420;86;28820;-62
2022/08/28 14:18:24;;;;;;;5.08;1.10;;;;;;;23.34;66.64;100085.58;2066451;86;31469;-61
2022/08/28 14:21:28;;;;;;;2.83;0.98;;;;;;;23.13;67.28;100090.07;2066273;86;33641;-60
2022/08/28 14:24:29;;;;;;;3.10;1.00;;;;;;;22.91;67.51;100090.97;2078504;84;29389;-63
2022/08/28 14:27:31;;;;;;;5.37;0.90;;;;;;;22.72;67.85;100101.63;2069693;85;27687;-61
2022/08/28 14:30:33;;;;;;;1.67;0.90;;;;;;;22.56;68.48;100100.14;2069654;86;29075;-63